createdAt,value
2018-10-06T00:00:17.083Z,1009.40
2018-10-06T00:01:17.063Z,1009.39
2018-10-06T00:02:17.056Z,1009.44
2018-10-06T00:03:17.067Z,1009.37
2018-10-06T00:04:17.033Z,1009.48
2018-10-06T00:05:17.013Z,1009.41
2018-10-06T00:06:17.081Z,1009.45
2018-10-06T00:07:16.992Z,1009.38
2018-10-06T00:08:16.993Z,1009.38
2018-10-06T00:09:16.979Z,1009.36
2018-10-06T00:10:16.962Z,1009.38
2018-10-06T00:11:16.985Z,1009.38
2018-10-06T00:12:16.962Z,1009.29
2018-10-06T00:13:16.938Z,1009.37
2018-10-06T00:14:16.918Z,1009.34
2018-10-06T00:15:16.904Z,1009.31
2018-10-06T00:16:16.909Z,1009.39
2018-10-06T00:17:16.919Z,1009.32
2018-10-06T00:18:16.882Z,1009.35
2018-10-06T00:19:16.860Z,1009.39
2018-10-06T00:20:16.845Z,1009.39
2018-10-06T00:21:16.873Z,1009.36
2018-10-06T00:22:16.936Z,1009.39
2018-10-06T00:23:16.821Z,1009.36
2018-10-06T00:24:16.837Z,1009.33
2018-10-06T00:25:16.790Z,1009.32
2018-10-06T00:26:16.777Z,1009.31
2018-10-06T00:27:16.928Z,1009.34
2018-10-06T00:28:16.803Z,1009.37
2018-10-06T00:29:16.745Z,1009.39
2018-10-06T00:30:16.742Z,1009.34
2018-10-06T00:31:16.763Z,1009.39
2018-10-06T00:32:16.758Z,1009.30
2018-10-06T00:33:16.714Z,1009.33
2018-10-06T00:34:16.694Z,1009.28
2018-10-06T00:35:16.683Z,1009.33
2018-10-06T00:36:16.687Z,1009.26
2018-10-06T00:37:16.795Z,1009.27
2018-10-06T00:38:16.652Z,1009.22
2018-10-06T00:39:16.638Z,1009.25
2018-10-06T00:40:16.632Z,1009.24
2018-10-06T00:41:16.613Z,1009.28
2018-10-06T00:42:16.647Z,1009.24
2018-10-06T00:43:16.596Z,1009.25
2018-10-06T00:44:16.597Z,1009.22
2018-10-06T00:45:16.583Z,1009.27
2018-10-06T00:46:16.569Z,1009.25
2018-10-06T00:47:16.645Z,1009.18
2018-10-06T00:48:16.540Z,1009.22
2018-10-06T00:49:16.536Z,1009.22
2018-10-06T00:50:16.536Z,1009.23
2018-10-06T00:51:16.533Z,1009.21
2018-10-06T00:52:16.504Z,1009.37
2018-10-06T00:53:16.486Z,1009.28
2018-10-06T00:54:16.471Z,1009.27
2018-10-06T00:55:16.498Z,1009.30
2018-10-06T00:56:16.489Z,1009.25
2018-10-06T00:57:16.476Z,1009.27
2018-10-06T00:58:16.435Z,1009.20
2018-10-06T00:59:16.418Z,1009.24
2018-10-06T01:00:16.415Z,1009.28
2018-10-06T01:01:16.395Z,1009.22
2018-10-06T01:02:16.435Z,1009.25
2018-10-06T01:03:16.371Z,1009.22
2018-10-06T01:04:16.360Z,1009.22
2018-10-06T01:05:16.386Z,1009.18
2018-10-06T01:06:16.365Z,1009.18
2018-10-06T01:07:16.326Z,1009.08
2018-10-06T01:08:16.340Z,1009.14
2018-10-06T01:09:16.327Z,1009.09
2018-10-06T01:10:16.293Z,1009.11
2018-10-06T01:11:16.286Z,1009.05
2018-10-06T01:12:16.279Z,1009.04
2018-10-06T01:13:16.289Z,1009.06
2018-10-06T01:14:16.262Z,1009.08
2018-10-06T01:15:16.234Z,1009.06
2018-10-06T01:16:16.265Z,1009.10
2018-10-06T01:17:16.213Z,1009.02
2018-10-06T01:18:16.234Z,1009.02
2018-10-06T01:19:16.200Z,1009.04
2018-10-06T01:20:16.198Z,1008.97
2018-10-06T01:21:16.203Z,1008.95
2018-10-06T01:22:16.162Z,1008.94
2018-10-06T01:23:16.190Z,1008.99
2018-10-06T01:24:16.136Z,1008.96
2018-10-06T01:25:16.131Z,1009.02
2018-10-06T01:26:16.157Z,1008.97
2018-10-06T01:27:16.141Z,1008.93
2018-10-06T01:28:16.095Z,1008.89
2018-10-06T01:29:16.088Z,1008.87
2018-10-06T01:30:16.077Z,1008.89
2018-10-06T01:31:16.062Z,1008.92
2018-10-06T01:32:16.093Z,1008.83
2018-10-06T01:33:16.044Z,1008.84
2018-10-06T01:34:16.038Z,1008.80
2018-10-06T01:35:16.040Z,1008.84
2018-10-06T01:36:16.004Z,1008.78
2018-10-06T01:37:15.999Z,1008.79
2018-10-06T01:38:15.995Z,1008.76
2018-10-06T01:39:15.969Z,1008.78
2018-10-06T01:40:15.983Z,1008.70
2018-10-06T01:41:15.995Z,1008.70
2018-10-06T01:42:15.942Z,1008.70
2018-10-06T01:43:15.941Z,1008.66
2018-10-06T01:44:15.928Z,1008.68
2018-10-06T01:45:15.930Z,1008.65
2018-10-06T01:46:15.897Z,1008.63
2018-10-06T01:47:15.880Z,1008.59
2018-10-06T01:48:15.868Z,1008.60
2018-10-06T01:49:15.861Z,1008.63
2018-10-06T01:50:15.896Z,1008.62
2018-10-06T01:51:15.835Z,1008.60
2018-10-06T01:52:15.828Z,1008.59
2018-10-06T01:53:15.857Z,1008.62
2018-10-06T01:54:15.816Z,1008.52
2018-10-06T01:55:15.794Z,1008.54
2018-10-06T01:56:15.790Z,1008.48
2018-10-06T01:57:15.809Z,1008.54
2018-10-06T01:58:15.858Z,1008.52
2018-10-06T01:59:15.776Z,1008.55
2018-10-06T02:00:15.733Z,1008.51
2018-10-06T02:01:15.726Z,1008.51
2018-10-06T02:02:15.718Z,1008.58
2018-10-06T02:03:15.745Z,1008.48
2018-10-06T02:04:15.690Z,1008.50
2018-10-06T02:05:15.683Z,1008.39
2018-10-06T02:06:15.717Z,1008.36
2018-10-06T02:07:15.690Z,1008.33
2018-10-06T02:08:15.668Z,1008.32
2018-10-06T02:09:15.645Z,1008.32
2018-10-06T02:10:15.626Z,1008.38
2018-10-06T02:11:15.652Z,1008.36
2018-10-06T02:12:15.604Z,1008.37
2018-10-06T02:13:15.620Z,1008.34
2018-10-06T02:14:15.611Z,1008.33
2018-10-06T02:15:15.601Z,1008.35
2018-10-06T02:16:15.561Z,1008.35
2018-10-06T02:17:15.583Z,1008.34
2018-10-06T02:18:15.536Z,1008.33
2018-10-06T02:19:15.527Z,1008.40
2018-10-06T02:20:15.518Z,1008.34
2018-10-06T02:21:15.503Z,1008.40
2018-10-06T02:22:15.595Z,1008.36
2018-10-06T02:23:15.524Z,1008.39
2018-10-06T02:24:15.595Z,1008.34
2018-10-06T02:25:15.461Z,1008.37
2018-10-06T02:26:15.469Z,1008.33
2018-10-06T02:27:15.449Z,1008.34
2018-10-06T02:28:15.422Z,1008.34
2018-10-06T02:29:15.442Z,1008.31
2018-10-06T02:30:15.547Z,1008.34
2018-10-06T02:31:15.397Z,1008.28
2018-10-06T02:32:15.384Z,1008.32
2018-10-06T02:33:15.369Z,1008.36
2018-10-06T02:34:15.393Z,1008.24
2018-10-06T02:35:15.347Z,1008.26
2018-10-06T02:36:15.337Z,1008.21
2018-10-06T02:37:15.374Z,1008.20
2018-10-06T02:38:15.333Z,1008.18
2018-10-06T02:39:15.302Z,1008.19
2018-10-06T02:40:15.331Z,1008.21
2018-10-06T02:41:15.286Z,1008.19
2018-10-06T02:42:15.277Z,1008.14
2018-10-06T02:43:15.271Z,1008.16
2018-10-06T02:44:15.244Z,1008.11
2018-10-06T02:45:15.263Z,1008.15
2018-10-06T02:46:15.279Z,1008.14
2018-10-06T02:47:15.212Z,1008.20
2018-10-06T02:48:15.204Z,1008.11
2018-10-06T02:49:15.233Z,1008.13
2018-10-06T02:50:15.182Z,1008.12
2018-10-06T02:51:15.171Z,1008.08
2018-10-06T02:52:15.251Z,1008.10
2018-10-06T02:53:15.149Z,1008.09
2018-10-06T02:54:15.133Z,1008.05
2018-10-06T02:55:15.146Z,1008.05
2018-10-06T02:56:15.112Z,1007.99
2018-10-06T02:57:15.139Z,1008.04
2018-10-06T02:58:15.090Z,1008.03
2018-10-06T02:59:15.088Z,1008.07
2018-10-06T03:00:15.079Z,1008.02
2018-10-06T03:01:15.080Z,1008.01
2018-10-06T03:02:15.094Z,1008.08
2018-10-06T03:03:15.041Z,1008.05
2018-10-06T03:04:15.032Z,1008.07
2018-10-06T03:05:15.016Z,1008.06
2018-10-06T03:06:15.034Z,1008.08
2018-10-06T03:07:15.012Z,1008.06
2018-10-06T03:08:14.983Z,1008.07
2018-10-06T03:09:14.971Z,1008.06
2018-10-06T03:10:14.958Z,1008.10
2018-10-06T03:11:14.991Z,1008.15
2018-10-06T03:12:14.944Z,1008.06
2018-10-06T03:13:14.957Z,1008.07
2018-10-06T03:14:14.920Z,1008.04
2018-10-06T03:15:14.902Z,1008.03
2018-10-06T03:16:14.922Z,1008.05
2018-10-06T03:17:14.897Z,1008.00
2018-10-06T03:18:14.885Z,1007.98
2018-10-06T03:19:14.869Z,1007.97
2018-10-06T03:20:14.881Z,1007.99
2018-10-06T03:21:14.860Z,1007.92
2018-10-06T03:22:14.827Z,1007.93
2018-10-06T03:23:14.868Z,1007.93
2018-10-06T03:24:14.820Z,1007.92
2018-10-06T03:25:14.800Z,1007.93
2018-10-06T03:26:14.801Z,1007.91
2018-10-06T03:27:14.781Z,1007.89
2018-10-06T03:28:14.802Z,1007.91
2018-10-06T03:29:14.773Z,1007.91
2018-10-06T03:30:14.778Z,1007.92
2018-10-06T03:31:14.762Z,1007.92
2018-10-06T03:32:14.730Z,1007.88
2018-10-06T03:33:14.706Z,1007.90
2018-10-06T03:34:14.701Z,1007.81
2018-10-06T03:35:14.714Z,1007.92
2018-10-06T03:36:14.686Z,1007.80
2018-10-06T03:37:14.663Z,1007.81
2018-10-06T03:38:14.674Z,1007.83
2018-10-06T03:39:14.673Z,1007.74
2018-10-06T03:40:14.636Z,1007.80
2018-10-06T03:41:14.618Z,1007.71
2018-10-06T03:42:14.621Z,1007.71
2018-10-06T03:43:14.629Z,1007.73
2018-10-06T03:44:14.625Z,1007.70
2018-10-06T03:45:15.281Z,1007.65
2018-10-06T03:46:14.590Z,1007.68
2018-10-06T03:47:14.596Z,1007.71
2018-10-06T03:48:14.574Z,1007.64
2018-10-06T03:49:14.535Z,1007.69
2018-10-06T03:50:14.528Z,1007.65
2018-10-06T03:51:14.512Z,1007.67
2018-10-06T03:52:14.548Z,1007.66
2018-10-06T03:53:14.531Z,1007.62
2018-10-06T03:54:14.474Z,1007.61
2018-10-06T03:55:14.464Z,1007.52
2018-10-06T03:56:14.452Z,1007.57
2018-10-06T03:57:14.448Z,1007.53
2018-10-06T03:58:14.468Z,1007.49
2018-10-06T03:59:14.456Z,1007.45
2018-10-06T04:00:14.414Z,1007.44
2018-10-06T04:01:14.403Z,1007.43
2018-10-06T04:02:14.424Z,1007.42
2018-10-06T04:03:14.378Z,1007.47
2018-10-06T04:04:14.407Z,1007.42
2018-10-06T04:05:14.398Z,1007.42
2018-10-06T04:06:14.345Z,1007.42
2018-10-06T04:07:14.372Z,1007.41
2018-10-06T04:08:14.358Z,1007.38
2018-10-06T04:09:14.312Z,1007.40
2018-10-06T04:10:14.303Z,1007.39
2018-10-06T04:11:14.297Z,1007.36
2018-10-06T04:12:14.317Z,1007.40
2018-10-06T04:13:14.271Z,1007.41
2018-10-06T04:14:14.257Z,1007.36
2018-10-06T04:15:14.242Z,1007.30
2018-10-06T04:16:14.229Z,1007.34
2018-10-06T04:17:14.256Z,1007.34
2018-10-06T04:18:14.212Z,1007.30
2018-10-06T04:19:14.209Z,1007.34
2018-10-06T04:20:14.239Z,1007.27
2018-10-06T04:21:14.182Z,1007.26
2018-10-06T04:22:14.210Z,1007.25
2018-10-06T04:23:14.180Z,1007.24
2018-10-06T04:24:14.172Z,1007.18
2018-10-06T04:25:14.161Z,1007.23
2018-10-06T04:26:14.122Z,1007.22
2018-10-06T04:27:14.108Z,1007.24
2018-10-06T04:28:14.170Z,1007.18
2018-10-06T04:29:14.133Z,1007.17
2018-10-06T04:30:14.080Z,1007.18
2018-10-06T04:31:14.064Z,1007.12
2018-10-06T04:32:14.052Z,1007.10
2018-10-06T04:33:14.050Z,1007.09
2018-10-06T04:34:14.067Z,1007.06
2018-10-06T04:35:14.057Z,1007.13
2018-10-06T04:36:14.012Z,1007.08
2018-10-06T04:37:14.027Z,1007.08
2018-10-06T04:38:13.994Z,1007.11
2018-10-06T04:39:13.992Z,1007.05
2018-10-06T04:40:13.964Z,1007.04
2018-10-06T04:41:13.971Z,1007.02
2018-10-06T04:42:13.987Z,1007.04
2018-10-06T04:43:13.945Z,1007.08
2018-10-06T04:44:13.927Z,1007.01
2018-10-06T04:45:13.910Z,1007.03
2018-10-06T04:46:13.904Z,1006.99
2018-10-06T04:47:13.923Z,1007.03
2018-10-06T04:48:13.884Z,1006.92
2018-10-06T04:49:13.895Z,1006.95
2018-10-06T04:50:13.856Z,1006.96
2018-10-06T04:51:13.849Z,1006.93
2018-10-06T04:52:13.849Z,1006.95
2018-10-06T04:53:13.960Z,1006.86
2018-10-06T04:54:13.822Z,1006.91
2018-10-06T04:55:13.796Z,1006.91
2018-10-06T04:56:13.792Z,1006.96
2018-10-06T04:57:13.782Z,1006.95
2018-10-06T04:58:13.802Z,1006.86
2018-10-06T04:59:13.776Z,1006.89
2018-10-06T05:00:13.769Z,1006.90
2018-10-06T05:01:13.775Z,1006.90
2018-10-06T05:02:13.728Z,1006.86
2018-10-06T05:03:13.794Z,1006.87
2018-10-06T05:04:13.704Z,1006.90
2018-10-06T05:05:13.693Z,1006.85
2018-10-06T05:06:13.713Z,1006.85
2018-10-06T05:07:13.712Z,1006.84
2018-10-06T05:08:13.696Z,1006.85
2018-10-06T05:09:13.697Z,1006.86
2018-10-06T05:10:13.644Z,1006.84
2018-10-06T05:11:13.623Z,1006.76
2018-10-06T05:12:13.620Z,1006.77
2018-10-06T05:13:13.602Z,1006.77
2018-10-06T05:14:13.625Z,1006.79
2018-10-06T05:15:13.622Z,1006.75
2018-10-06T05:16:13.584Z,1006.76
2018-10-06T05:17:13.602Z,1006.80
2018-10-06T05:18:13.549Z,1006.83
2018-10-06T05:19:13.580Z,1006.75
2018-10-06T05:20:13.528Z,1006.84
2018-10-06T05:21:13.542Z,1006.77
2018-10-06T05:22:13.501Z,1006.73
2018-10-06T05:23:13.496Z,1006.75
2018-10-06T05:24:13.593Z,1006.76
2018-10-06T05:25:13.507Z,1006.74
2018-10-06T05:26:13.466Z,1006.76
2018-10-06T05:27:13.458Z,1006.76
2018-10-06T05:28:13.446Z,1006.75
2018-10-06T05:29:13.431Z,1006.82
2018-10-06T05:30:13.467Z,1006.82
2018-10-06T05:31:13.412Z,1006.71
2018-10-06T05:32:13.403Z,1006.71
2018-10-06T05:33:13.387Z,1006.71
2018-10-06T05:34:13.410Z,1006.71
2018-10-06T05:35:13.398Z,1006.66
2018-10-06T05:36:13.395Z,1006.68
2018-10-06T05:37:13.370Z,1006.67
2018-10-06T05:38:13.339Z,1006.67
2018-10-06T05:39:13.326Z,1006.71
2018-10-06T05:40:13.411Z,1006.69
2018-10-06T05:41:13.328Z,1006.65
2018-10-06T05:42:13.286Z,1006.68
2018-10-06T05:43:13.278Z,1006.70
2018-10-06T05:44:13.270Z,1006.69
2018-10-06T05:45:13.299Z,1006.70
2018-10-06T05:46:13.266Z,1006.71
2018-10-06T05:47:13.233Z,1006.72
2018-10-06T05:48:13.222Z,1006.67
2018-10-06T05:49:13.215Z,1006.70
2018-10-06T05:50:13.244Z,1006.71
2018-10-06T05:51:13.189Z,1006.73
2018-10-06T05:52:13.182Z,1006.72
2018-10-06T05:53:13.166Z,1006.73
2018-10-06T05:54:13.159Z,1006.72
2018-10-06T05:55:13.196Z,1006.69
2018-10-06T05:56:13.159Z,1006.70
2018-10-06T05:57:13.129Z,1006.75
2018-10-06T05:58:13.112Z,1006.67
2018-10-06T05:59:13.144Z,1006.76
2018-10-06T06:00:13.136Z,1006.72
2018-10-06T06:01:13.084Z,1006.68
2018-10-06T06:02:13.072Z,1006.67
2018-10-06T06:03:13.058Z,1006.73
2018-10-06T06:04:13.083Z,1006.68
2018-10-06T06:05:13.074Z,1006.77
2018-10-06T06:06:13.035Z,1006.71
2018-10-06T06:07:13.055Z,1006.70
2018-10-06T06:08:13.015Z,1006.69
2018-10-06T06:09:12.995Z,1006.71
2018-10-06T06:10:12.982Z,1006.68
2018-10-06T06:11:13.003Z,1006.67
2018-10-06T06:12:12.963Z,1006.68
2018-10-06T06:13:12.948Z,1006.72
2018-10-06T06:14:12.944Z,1006.72
2018-10-06T06:15:12.963Z,1006.75
2018-10-06T06:16:12.923Z,1006.67
2018-10-06T06:17:12.906Z,1006.71
2018-10-06T06:18:12.900Z,1006.70
2018-10-06T06:19:12.882Z,1006.69
2018-10-06T06:20:12.945Z,1006.71
2018-10-06T06:21:12.859Z,1006.71
2018-10-06T06:22:12.874Z,1006.71
2018-10-06T06:23:12.848Z,1006.74
2018-10-06T06:24:12.864Z,1006.72
2018-10-06T06:25:12.818Z,1006.72
2018-10-06T06:26:12.817Z,1006.73
2018-10-06T06:27:12.801Z,1006.76
2018-10-06T06:28:12.785Z,1006.75
2018-10-06T06:29:12.817Z,1006.78
2018-10-06T06:30:12.766Z,1006.79
2018-10-06T06:31:12.796Z,1006.74
2018-10-06T06:32:12.816Z,1006.79
2018-10-06T06:33:12.761Z,1006.86
2018-10-06T06:34:12.767Z,1006.83
2018-10-06T06:35:12.708Z,1006.78
2018-10-06T06:36:12.810Z,1006.76
2018-10-06T06:37:12.693Z,1006.72
2018-10-06T06:38:12.689Z,1006.72
2018-10-06T06:39:12.666Z,1006.70
2018-10-06T06:40:12.694Z,1006.72
2018-10-06T06:41:12.644Z,1006.77
2018-10-06T06:42:12.680Z,1006.79
2018-10-06T06:43:12.620Z,1006.75
2018-10-06T06:44:12.745Z,1006.74
2018-10-06T06:45:12.621Z,1006.76
2018-10-06T06:46:12.585Z,1006.68
2018-10-06T06:47:12.614Z,1006.66
2018-10-06T06:48:12.572Z,1006.67
2018-10-06T06:49:12.552Z,1006.69
2018-10-06T06:50:12.599Z,1006.68
2018-10-06T06:51:12.533Z,1006.64
2018-10-06T06:52:12.592Z,1006.69
2018-10-06T06:53:12.514Z,1006.65
2018-10-06T06:54:12.503Z,1006.61
2018-10-06T06:55:12.486Z,1006.62
2018-10-06T06:56:12.527Z,1006.64
2018-10-06T06:57:12.501Z,1006.61
2018-10-06T06:58:12.452Z,1006.63
2018-10-06T06:59:12.444Z,1006.59
2018-10-06T07:00:12.476Z,1006.58
2018-10-06T07:01:12.425Z,1006.55
2018-10-06T07:02:12.461Z,1006.56
2018-10-06T07:03:12.400Z,1006.52
2018-10-06T07:04:12.442Z,1006.50
2018-10-06T07:05:12.378Z,1006.54
2018-10-06T07:06:12.415Z,1006.50
2018-10-06T07:07:12.355Z,1006.52
2018-10-06T07:08:12.348Z,1006.50
2018-10-06T07:09:12.330Z,1006.42
2018-10-06T07:10:12.327Z,1006.48
2018-10-06T07:11:12.352Z,1006.44
2018-10-06T07:12:12.301Z,1006.39
2018-10-06T07:13:12.316Z,1006.38
2018-10-06T07:14:12.282Z,1006.36
2018-10-06T07:15:12.277Z,1006.35
2018-10-06T07:16:12.283Z,1006.40
2018-10-06T07:17:12.286Z,1006.41
2018-10-06T07:18:12.249Z,1006.29
2018-10-06T07:19:12.294Z,1006.26
2018-10-06T07:20:12.235Z,1006.28
2018-10-06T07:21:12.205Z,1006.33
2018-10-06T07:22:12.192Z,1006.32
2018-10-06T07:23:12.221Z,1006.35
2018-10-06T07:24:12.176Z,1006.28
2018-10-06T07:25:12.200Z,1006.26
2018-10-06T07:26:12.148Z,1006.29
2018-10-06T07:27:12.140Z,1006.25
2018-10-06T07:28:12.157Z,1006.24
2018-10-06T07:29:12.115Z,1006.25
2018-10-06T07:30:12.140Z,1006.22
2018-10-06T07:31:12.125Z,1006.23
2018-10-06T07:32:12.212Z,1006.24
2018-10-06T07:33:12.078Z,1006.23
2018-10-06T07:34:12.054Z,1006.30
2018-10-06T07:35:12.046Z,1006.25
2018-10-06T07:36:12.032Z,1006.25
2018-10-06T07:37:12.059Z,1006.26
2018-10-06T07:38:12.048Z,1006.26
2018-10-06T07:39:12.005Z,1006.19
2018-10-06T07:40:12.031Z,1006.23
2018-10-06T07:41:11.979Z,1006.24
2018-10-06T07:42:11.971Z,1006.27
2018-10-06T07:43:11.966Z,1006.28
2018-10-06T07:44:11.957Z,1006.28
2018-10-06T07:45:11.977Z,1006.29
2018-10-06T07:46:11.923Z,1006.34
2018-10-06T07:47:11.925Z,1006.32
2018-10-06T07:48:11.936Z,1006.30
2018-10-06T07:49:11.898Z,1006.26
2018-10-06T07:50:11.886Z,1006.26
2018-10-06T07:51:11.868Z,1006.30
2018-10-06T07:52:11.872Z,1006.28
2018-10-06T07:53:11.952Z,1006.29
2018-10-06T07:54:11.876Z,1006.26
2018-10-06T07:55:11.826Z,1006.26
2018-10-06T07:56:11.863Z,1006.32
2018-10-06T07:57:11.808Z,1006.31
2018-10-06T07:58:11.802Z,1006.26
2018-10-06T07:59:11.945Z,1006.28
2018-10-06T08:00:11.786Z,1006.21
2018-10-06T08:01:11.819Z,1006.21
2018-10-06T08:02:11.754Z,1006.17
2018-10-06T08:03:11.748Z,1006.24
2018-10-06T08:04:11.736Z,1006.23
2018-10-06T08:05:11.717Z,1006.24
2018-10-06T08:06:11.781Z,1006.20
2018-10-06T08:07:11.691Z,1006.18
2018-10-06T08:08:11.695Z,1006.20
2018-10-06T08:09:11.676Z,1006.16
2018-10-06T08:10:11.664Z,1006.17
2018-10-06T08:11:11.693Z,1006.13
2018-10-06T08:12:11.633Z,1006.16
2018-10-06T08:13:11.662Z,1006.13
2018-10-06T08:14:11.611Z,1006.15
2018-10-06T08:15:11.612Z,1006.15
2018-10-06T08:16:11.613Z,1006.17
2018-10-06T08:17:11.583Z,1006.18
2018-10-06T08:18:11.608Z,1006.14
2018-10-06T08:19:11.565Z,1006.16
2018-10-06T08:20:11.554Z,1006.14
2018-10-06T08:21:11.586Z,1006.11
2018-10-06T08:22:11.532Z,1006.08
2018-10-06T08:23:11.553Z,1006.10
2018-10-06T08:24:11.521Z,1006.10
2018-10-06T08:25:11.504Z,1006.11
2018-10-06T08:26:11.521Z,1006.07
2018-10-06T08:27:11.512Z,1006.04
2018-10-06T08:28:11.575Z,1006.06
2018-10-06T08:29:11.471Z,1006.03
2018-10-06T08:30:11.473Z,1006.02
2018-10-06T08:31:12.408Z,1006.07
2018-10-06T08:32:11.419Z,1006.05
2018-10-06T08:33:11.473Z,1005.93
2018-10-06T08:34:11.417Z,1005.99
2018-10-06T08:35:11.383Z,1005.95
2018-10-06T08:36:11.405Z,1005.93
2018-10-06T08:37:11.374Z,1005.94
2018-10-06T08:38:11.370Z,1005.90
2018-10-06T08:39:11.509Z,1005.88
2018-10-06T08:40:11.374Z,1005.83
2018-10-06T08:41:11.384Z,1005.86
2018-10-06T08:42:11.446Z,1005.85
2018-10-06T08:43:11.355Z,1005.84
2018-10-06T08:44:11.331Z,1005.83
2018-10-06T08:45:11.275Z,1005.89
2018-10-06T08:46:11.263Z,1005.86
2018-10-06T08:47:11.328Z,1005.93
2018-10-06T08:48:11.256Z,1005.84
2018-10-06T08:49:11.252Z,1005.85
2018-10-06T08:50:11.251Z,1005.84
2018-10-06T08:51:11.254Z,1005.89
2018-10-06T08:52:11.193Z,1005.87
2018-10-06T08:53:11.190Z,1005.89
2018-10-06T08:54:11.178Z,1005.86
2018-10-06T08:55:11.205Z,1005.84
2018-10-06T08:56:11.211Z,1005.84
2018-10-06T08:57:11.141Z,1005.87
2018-10-06T08:58:11.192Z,1005.84
2018-10-06T08:59:11.154Z,1005.81
2018-10-06T09:00:11.136Z,1005.80
2018-10-06T09:01:11.098Z,1005.83
2018-10-06T09:02:11.087Z,1005.81
2018-10-06T09:03:11.083Z,1005.79
2018-10-06T09:04:11.120Z,1005.79
2018-10-06T09:05:11.094Z,1005.80
2018-10-06T09:06:11.043Z,1005.85
2018-10-06T09:07:11.029Z,1005.76
2018-10-06T09:08:11.017Z,1005.72
2018-10-06T09:09:11.004Z,1005.66
2018-10-06T09:10:11.026Z,1005.71
2018-10-06T09:11:10.980Z,1005.71
2018-10-06T09:12:10.974Z,1005.69
2018-10-06T09:13:10.963Z,1005.69
2018-10-06T09:14:10.956Z,1005.67
2018-10-06T09:15:10.986Z,1005.69
2018-10-06T09:16:10.935Z,1005.72
2018-10-06T09:17:10.914Z,1005.73
2018-10-06T09:18:10.914Z,1005.65
2018-10-06T09:19:10.907Z,1005.66
2018-10-06T09:20:10.913Z,1005.68
2018-10-06T09:21:10.872Z,1005.58
2018-10-06T09:22:10.920Z,1005.61
2018-10-06T09:23:10.854Z,1005.65
2018-10-06T09:24:10.849Z,1005.57
2018-10-06T09:25:10.861Z,1005.53
2018-10-06T09:26:10.817Z,1005.53
2018-10-06T09:27:10.803Z,1005.59
2018-10-06T09:28:10.824Z,1005.53
2018-10-06T09:29:10.780Z,1005.59
2018-10-06T09:30:10.805Z,1005.57
2018-10-06T09:31:10.782Z,1005.56
2018-10-06T09:32:10.758Z,1005.51
2018-10-06T09:33:10.788Z,1005.50
2018-10-06T09:34:10.738Z,1005.50
2018-10-06T09:35:10.721Z,1005.48
2018-10-06T09:36:10.708Z,1005.48
2018-10-06T09:37:10.705Z,1005.48
2018-10-06T09:38:10.721Z,1005.46
2018-10-06T09:39:10.707Z,1005.47
2018-10-06T09:40:10.682Z,1005.50
2018-10-06T09:41:10.674Z,1005.48
2018-10-06T09:42:10.813Z,1005.45
2018-10-06T09:43:10.635Z,1005.48
2018-10-06T09:44:10.622Z,1005.47
2018-10-06T09:45:10.610Z,1005.45
2018-10-06T09:46:10.602Z,1005.47
2018-10-06T09:47:10.702Z,1005.54
2018-10-06T09:48:10.652Z,1005.47
2018-10-06T09:49:10.566Z,1005.51
2018-10-06T09:50:10.582Z,1005.48
2018-10-06T09:51:10.540Z,1005.47
2018-10-06T09:52:10.565Z,1005.51
2018-10-06T09:53:10.530Z,1005.46
2018-10-06T09:54:10.512Z,1005.48
2018-10-06T09:55:10.533Z,1005.38
2018-10-06T09:56:10.486Z,1005.42
2018-10-06T09:57:10.479Z,1005.37
2018-10-06T09:58:10.466Z,1005.33
2018-10-06T09:59:10.459Z,1005.35
2018-10-06T10:00:10.504Z,1005.37
2018-10-06T10:01:10.430Z,1005.48
2018-10-06T10:02:10.462Z,1005.38
2018-10-06T10:03:10.411Z,1005.40
2018-10-06T10:04:10.409Z,1005.36
2018-10-06T10:05:10.425Z,1005.42
2018-10-06T10:06:10.378Z,1005.39
2018-10-06T10:07:10.448Z,1005.42
2018-10-06T10:08:10.403Z,1005.38
2018-10-06T10:09:10.378Z,1005.32
2018-10-06T10:10:10.332Z,1005.41
2018-10-06T10:11:10.321Z,1005.31
2018-10-06T10:12:10.335Z,1005.37
2018-10-06T10:13:10.298Z,1005.33
2018-10-06T10:14:10.330Z,1005.42
2018-10-06T10:15:10.306Z,1005.34
2018-10-06T10:16:10.301Z,1005.33
2018-10-06T10:17:10.355Z,1005.29
2018-10-06T10:18:10.529Z,1005.33
2018-10-06T10:19:10.273Z,1005.28
2018-10-06T10:20:10.225Z,1005.24
2018-10-06T10:21:10.230Z,1005.26
2018-10-06T10:22:10.334Z,1005.26
2018-10-06T10:23:10.195Z,1005.27
2018-10-06T10:24:10.179Z,1005.17
2018-10-06T10:25:10.167Z,1005.19
2018-10-06T10:26:10.182Z,1005.16
2018-10-06T10:27:10.154Z,1005.10
2018-10-06T10:28:10.140Z,1005.18
2018-10-06T10:29:10.129Z,1005.18
2018-10-06T10:30:10.115Z,1005.19
2018-10-06T10:31:10.150Z,1005.25
2018-10-06T10:32:10.121Z,1005.25
2018-10-06T10:33:10.078Z,1005.25
2018-10-06T10:34:10.361Z,1005.25
2018-10-06T10:35:10.329Z,1005.23
2018-10-06T10:36:10.434Z,1005.20
2018-10-06T10:37:10.064Z,1005.09
2018-10-06T10:38:10.037Z,1005.17
2018-10-06T10:39:10.116Z,1005.11
2018-10-06T10:40:10.009Z,1005.18
2018-10-06T10:41:09.996Z,1005.17
2018-10-06T10:42:09.985Z,1005.15
2018-10-06T10:43:10.016Z,1005.10
2018-10-06T10:44:09.982Z,1005.04
2018-10-06T10:45:09.948Z,1005.08
2018-10-06T10:46:09.983Z,1005.06
2018-10-06T10:47:09.945Z,1005.06
2018-10-06T10:48:09.930Z,1005.11
2018-10-06T10:49:09.945Z,1005.11
2018-10-06T10:50:09.895Z,1005.15
2018-10-06T10:51:09.882Z,1005.15
2018-10-06T10:52:09.883Z,1005.10
2018-10-06T10:53:09.923Z,1005.10
2018-10-06T10:54:09.849Z,1005.04
2018-10-06T10:55:09.846Z,1005.04
2018-10-06T10:56:09.868Z,1004.98
2018-10-06T10:57:09.813Z,1005.00
2018-10-06T10:58:09.840Z,1005.01
2018-10-06T10:59:09.866Z,1005.00
2018-10-06T11:00:09.846Z,1004.96
2018-10-06T11:01:09.931Z,1004.92
2018-10-06T11:02:09.759Z,1004.99
2018-10-06T11:03:09.767Z,1004.89
2018-10-06T11:04:09.774Z,1004.91
2018-10-06T11:05:09.756Z,1004.87
2018-10-06T11:06:09.718Z,1004.90
2018-10-06T11:07:09.752Z,1004.86
2018-10-06T11:08:09.700Z,1004.88
2018-10-06T11:09:09.681Z,1004.86
2018-10-06T11:10:09.673Z,1004.86
2018-10-06T11:11:09.752Z,1004.88
2018-10-06T11:12:09.647Z,1004.85
2018-10-06T11:13:09.635Z,1004.78
2018-10-06T11:14:09.626Z,1004.80
2018-10-06T11:15:09.647Z,1004.83
2018-10-06T11:16:09.609Z,1004.83
2018-10-06T11:17:09.750Z,1004.81
2018-10-06T11:18:09.612Z,1004.79
2018-10-06T11:19:09.573Z,1004.74
2018-10-06T11:20:09.587Z,1004.75
2018-10-06T11:21:09.556Z,1004.77
2018-10-06T11:22:09.536Z,1004.75
2018-10-06T11:23:09.533Z,1004.72
2018-10-06T11:24:09.517Z,1004.69
2018-10-06T11:25:09.532Z,1004.66
2018-10-06T11:26:09.495Z,1004.67
2018-10-06T11:27:09.491Z,1004.69
2018-10-06T11:28:09.513Z,1004.70
2018-10-06T11:29:09.468Z,1004.69
2018-10-06T11:30:09.450Z,1004.63
2018-10-06T11:31:09.436Z,1004.61
2018-10-06T11:32:09.462Z,1004.57
2018-10-06T11:33:09.447Z,1004.59
2018-10-06T11:34:09.440Z,1004.58
2018-10-06T11:35:09.440Z,1004.58
2018-10-06T11:36:09.416Z,1004.54
2018-10-06T11:37:09.411Z,1004.57
2018-10-06T11:38:09.437Z,1004.48
2018-10-06T11:39:09.360Z,1004.48
2018-10-06T11:40:09.387Z,1004.35
2018-10-06T11:41:09.348Z,1004.41
2018-10-06T11:42:09.322Z,1004.38
2018-10-06T11:43:09.311Z,1004.38
2018-10-06T11:44:09.296Z,1004.42
2018-10-06T11:45:09.313Z,1004.37
2018-10-06T11:46:09.278Z,1004.33
2018-10-06T11:47:09.273Z,1004.33
2018-10-06T11:48:09.295Z,1004.30
2018-10-06T11:49:09.239Z,1004.36
2018-10-06T11:50:09.286Z,1004.34
2018-10-06T11:51:09.225Z,1004.31
2018-10-06T11:52:09.256Z,1004.34
2018-10-06T11:53:09.225Z,1004.28
2018-10-06T11:54:09.191Z,1004.27
2018-10-06T11:55:09.174Z,1004.24
2018-10-06T11:56:09.165Z,1004.23
2018-10-06T11:57:09.244Z,1004.21
2018-10-06T11:58:09.144Z,1004.13
2018-10-06T11:59:09.165Z,1004.10
2018-10-06T12:00:09.293Z,1004.17
2018-10-06T12:01:09.148Z,1004.10
2018-10-06T12:02:09.113Z,1004.15
2018-10-06T12:03:09.088Z,1004.18
2018-10-06T12:04:09.078Z,1004.20
2018-10-06T12:05:09.100Z,1004.22